Scarborough, Canada
Current Conditions -  °F | °C
As of 12:00 PM on Thursday 18 Dec 2014 (Local Time) from CYKZ Reporting Station
Overcast Overcast  
Wind Chill: 20°   Ceiling: 1400
Heat Index: 30°   Visibility: 12mi
Dew Point: 23°   Wind: 13mph
Humidity: 75%   Direction: 320°NW
Pressure: 30.07"   Gusts: NA
Location:  43.77°N, 79.26°W
Report Text: CYKZ 181700Z 32011KT 12SM OVC014 M01/M05 A3007 RMK SC8 VCSH SSETCU EMBD SLP192
Loading
Personal Weather Stations






























Interactive Weather Map New forecast layout! Learn more

10-Day Weather Forecast

Advertisements
Track Severe Weather on mobile